Time;durP1;ratioP1;P1;durP2;ratioP2;P2;SDS_P1;SDS_P2;PMS_P1;PMS_P2;Temp;Humidity;BMP_temperature;BMP_pressure;BME280_temperature;BME280_humidity;BME280_pressure;Samples;Min_cycle;Max_cycle;Signal;HPM_P1;HPM_P2
2021/01/16 00:00:50;;;;;;;25.90;14.52;;;0.00;78.80;;;-2.25;78.43;96755.13;5006715;28;20057;-71
2021/01/16 00:03:16;;;;;;;25.63;13.70;;;0.10;78.60;;;-2.25;78.77;96749.97;4986438;28;20037;-70
2021/01/16 00:05:43;;;;;;;25.17;13.88;;;0.10;78.50;;;-2.26;78.68;96753.47;5001466;28;20407;-70
2021/01/16 00:08:12;;;;;;;26.60;14.82;;;0.00;78.50;;;-2.33;78.76;96747.84;5009029;28;20034;-70
2021/01/16 00:10:52;;;;;;;25.63;14.90;;;0.00;78.70;;;-2.29;80.27;96751.88;5030867;28;20041;-69
2021/01/16 00:13:23;;;;;;;25.65;14.02;;;0.00;79.00;;;-2.31;79.40;96755.47;4989689;28;20042;-70
2021/01/16 00:15:49;;;;;;;23.63;13.05;;;-3276.70;79.30;;;-2.30;78.31;96762.28;5005505;28;20041;-70
2021/01/16 00:18:17;;;;;;;24.17;13.63;;;-3276.70;79.40;;;-2.32;78.59;96748.66;5004947;28;20059;-70
2021/01/16 00:20:49;;;;;;;26.90;13.45;;;0.00;79.30;;;-2.32;79.37;96754.66;4989846;28;20041;-71
2021/01/16 00:23:15;;;;;;;30.70;16.05;;;0.00;79.50;;;-2.31;78.94;96752.91;5006406;28;20105;-70
2021/01/16 00:25:41;;;;;;;26.02;15.07;;;0.00;79.80;;;-2.37;78.69;96750.69;5005777;28;20100;-70
2021/01/16 00:28:07;;;;;;;25.02;13.88;;;-3276.60;79.90;;;-2.35;78.67;96754.00;5002565;28;20506;-69
2021/01/16 00:30:34;;;;;;;26.95;13.27;;;-3276.60;80.40;;;-2.35;79.17;96766.88;5005726;28;20140;-70
2021/01/16 00:33:02;;;;;;;23.27;13.63;;;-3276.60;80.30;;;-2.37;78.80;96761.00;5007391;28;20021;-70
2021/01/16 00:35:28;;;;;;;23.17;13.35;;;-3276.50;80.50;;;-2.36;78.88;96767.81;4995356;28;20639;-69
2021/01/16 00:37:54;;;;;;;26.17;14.00;;;-3276.60;80.30;;;-2.35;79.33;96764.31;5004734;28;20037;-69
2021/01/16 00:40:23;;;;;;;24.58;12.95;;;-3276.70;79.80;;;-2.37;79.15;96766.16;5006260;28;20033;-69
2021/01/16 00:42:54;;;;;;;26.80;14.30;;;-3276.60;80.10;;;-2.40;79.62;96769.75;5004090;28;20138;-69
2021/01/16 00:45:20;;;;;;;27.02;14.05;;;-3276.50;80.30;;;-2.39;78.91;96771.41;5022083;28;20034;-69
2021/01/16 00:47:46;;;;;;;26.02;14.00;;;-3276.50;80.30;;;-2.39;79.25;96773.16;5005004;28;20173;-69
2021/01/16 00:50:15;;;;;;;28.88;14.27;;;-3276.50;80.50;;;-2.39;79.50;96773.16;4986265;28;20104;-69
2021/01/16 00:52:40;;;;;;;23.23;13.43;;;-3276.60;80.40;;;-2.38;79.16;96769.66;5006186;28;20046;-69
2021/01/16 00:55:08;;;;;;;25.90;13.85;;;-3276.50;80.20;;;-2.38;79.19;96772.22;5006638;28;20091;-68
2021/01/16 00:57:34;;;;;;;22.98;13.50;;;-3276.60;80.00;;;-2.38;79.40;96770.47;5003947;28;20441;-69
2021/01/16 00:59:59;;;;;;;28.45;14.65;;;-3276.60;79.80;;;-2.37;79.16;96781.63;5003709;28;20110;-69
2021/01/16 01:02:25;;;;;;;25.08;13.10;;;-3276.60;79.70;;;-2.36;79.40;96778.13;5005337;28;20038;-71
2021/01/16 01:04:51;;;;;;;26.38;13.88;;;-3276.60;79.90;;;-2.35;79.38;96780.59;5004611;28;20033;-71
2021/01/16 01:07:17;;;;;;;26.17;14.52;;;-3276.70;79.60;;;-2.36;78.81;96783.28;4986886;28;20026;-71
2021/01/16 01:09:44;;;;;;;25.70;13.55;;;-3276.50;79.70;;;-2.38;79.29;96777.38;4987489;28;20140;-69
2021/01/16 01:12:11;;;;;;;29.77;13.98;;;-3276.50;80.00;;;-2.37;79.51;96779.03;5021876;28;20111;-69
2021/01/16 01:14:37;;;;;;;25.50;14.13;;;-3276.60;79.80;;;-2.35;79.19;96780.59;4997566;28;20038;-70
2021/01/16 01:17:16;;;;;;;27.20;14.32;;;-3276.60;79.60;;;-2.35;80.56;96782.34;5003555;28;20034;-69
2021/01/16 01:19:42;;;;;;;25.80;14.02;;;-3276.60;79.70;;;-2.34;78.77;96776.28;4998984;28;20030;-70
2021/01/16 01:22:08;;;;;;;27.00;14.77;;;-3276.70;79.40;;;-2.33;79.30;96778.75;5007582;28;20034;-69
2021/01/16 01:24:34;;;;;;;22.35;12.90;;;-3276.70;79.20;;;-2.32;78.86;96782.16;5004011;28;20118;-71
2021/01/16 01:27:00;;;;;;;23.70;13.77;;;-3276.70;79.20;;;-2.32;79.26;96780.41;5004583;28;20057;-72
2021/01/16 01:29:26;;;;;;;27.75;14.73;;;-3276.70;79.30;;;-2.33;79.38;96783.09;5004928;28;20117;-72
2021/01/16 01:31:52;;;;;;;24.88;13.70;;;-3276.60;79.10;;;-2.33;79.19;96789.06;5005951;28;20030;-72
2021/01/16 01:34:17;;;;;;;26.88;13.98;;;-3276.60;79.10;;;-2.33;79.34;96777.94;5005018;28;20065;-69
2021/01/16 01:36:43;;;;;;;26.42;13.05;;;-3276.60;79.20;;;-2.35;78.90;96775.44;5003195;28;20136;-70
2021/01/16 01:39:09;;;;;;;25.33;14.18;;;-3276.60;79.30;;;-2.33;79.07;96777.94;5002614;28;20085;-68
2021/01/16 01:41:38;;;;;;;27.17;14.07;;;-3276.60;79.10;;;-2.32;79.30;96782.16;5004369;28;20169;-69
2021/01/16 01:44:05;;;;;;;23.02;13.52;;;-3276.60;79.10;;;-2.34;78.66;96782.25;5006114;28;20112;-72
2021/01/16 01:46:32;;;;;;;27.70;13.55;;;-3276.60;79.20;;;-2.32;78.75;96789.88;5002855;28;20034;-69
2021/01/16 01:48:58;;;;;;;23.38;13.10;;;-3276.70;78.90;;;-2.32;78.80;96783.00;5005746;28;20064;-69
2021/01/16 01:51:24;;;;;;;24.58;13.25;;;-3276.70;78.70;;;-2.32;78.89;96787.31;5003428;28;20120;-70
2021/01/16 01:53:51;;;;;;;25.85;12.98;;;-3276.70;78.70;;;-2.31;79.23;96784.63;5002975;28;20137;-69
2021/01/16 01:56:17;;;;;;;24.02;13.57;;;-3276.70;78.80;;;-2.31;78.92;96782.06;5002273;28;20034;-69
2021/01/16 01:58:43;;;;;;;26.20;13.95;;;-3276.70;78.60;;;-2.32;78.69;96782.16;4971139;28;20509;-71
2021/01/16 02:01:08;;;;;;;25.45;13.68;;;-3276.60;79.00;;;-2.31;78.74;96781.25;5030288;28;20537;-70
2021/01/16 02:03:34;;;;;;;23.05;12.82;;;-3276.70;78.70;;;-2.29;78.88;96781.97;4973507;28;20069;-71
2021/01/16 02:06:00;;;;;;;26.23;14.02;;;0.00;78.40;;;-2.29;79.18;96774.25;5002959;28;20053;-69
2021/01/16 02:08:26;;;;;;;24.27;13.10;;;-3276.70;78.30;;;-2.27;78.59;96782.69;5004916;28;20026;-72
2021/01/16 02:10:51;;;;;;;26.73;14.25;;;0.00;78.30;;;-2.27;78.74;96777.53;5003521;28;20070;-71
2021/01/16 02:13:17;;;;;;;28.55;14.27;;;-3276.70;78.50;;;-2.29;78.66;96779.38;4998710;28;20038;-71
2021/01/16 02:16:09;;;;;;;25.33;14.57;;;-3276.70;78.60;;;-2.30;80.19;96781.13;5008986;28;20034;-71
2021/01/16 02:18:42;;;;;;;22.90;13.45;;;-3276.60;78.70;;;-2.29;79.02;96776.81;5010544;28;20038;-71
2021/01/16 02:21:09;;;;;;;24.05;13.20;;;-3276.60;78.80;;;-2.30;79.26;96773.41;4995062;28;20034;-72
2021/01/16 02:24:04;;;;;;;24.30;14.38;;;-3276.70;78.90;;;-2.29;80.53;96779.38;5009320;28;20042;-72
2021/01/16 02:27:18;;;;;;;27.88;14.50;;;-3276.70;79.00;;;-2.31;80.37;96776.09;5010570;28;20038;-71
2021/01/16 02:29:44;;;;;;;22.17;12.73;;;-3276.60;79.20;;;-2.30;78.68;96772.59;5003520;28;20029;-69
2021/01/16 02:32:10;;;;;;;26.95;14.95;;;0.00;78.80;;;-2.30;78.47;96778.56;5009784;28;20730;-72
2021/01/16 02:34:40;;;;;;;28.35;14.65;;;-3276.70;78.90;;;-2.34;79.68;96777.09;5009873;28;20485;-71
2021/01/16 02:37:46;;;;;;;25.30;14.70;;;-3276.50;79.20;;;-2.35;80.61;96784.94;4992704;28;20096;-72
2021/01/16 02:40:24;;;;;;;28.05;14.85;;;-3276.60;79.30;;;-2.39;80.66;96773.97;4989713;28;20118;-70
2021/01/16 02:43:11;;;;;;;27.65;14.52;;;-3276.50;79.50;;;-2.39;79.37;96773.97;4985154;28;20054;-70
2021/01/16 02:46:11;;;;;;;29.23;14.93;;;-3276.60;79.60;;;-2.40;79.39;96776.66;4993125;28;20034;-69
2021/01/16 02:49:13;;;;;;;26.20;14.35;;;-3276.60;79.50;;;-2.44;80.92;96770.88;4977413;28;20069;-71
2021/01/16 02:51:54;;;;;;;27.73;15.25;;;-3276.50;80.00;;;-2.42;81.06;96770.78;5003064;28;20368;-69
2021/01/16 02:54:20;;;;;;;;;;;-3276.50;80.20;;;-2.44;81.51;96775.19;4993088;28;20057;-69
2021/01/16 02:56:45;;;;;;;29.92;13.85;;;-3276.40;80.40;;;-2.44;78.94;96776.00;4972385;28;19984;-69
2021/01/16 02:59:11;;;;;;;28.20;15.75;;;-3276.50;80.20;;;-2.45;78.97;96771.78;4974351;28;20231;-70
2021/01/16 03:01:39;;;;;;;29.50;15.57;;;-3276.50;80.00;;;-2.44;79.35;96777.75;4989257;28;20148;-70
2021/01/16 03:04:05;;;;;;;28.02;15.23;;;-3276.50;80.00;;;-2.44;79.49;96775.19;4989809;28;20495;-69
2021/01/16 03:06:32;;;;;;;27.15;15.57;;;-3276.50;80.10;;;-2.41;79.18;96780.16;4989981;28;20050;-68
2021/01/16 03:08:57;;;;;;;30.17;16.17;;;-3276.60;80.10;;;-2.43;79.56;96776.84;4990821;28;20073;-70
2021/01/16 03:11:24;;;;;;;31.55;16.30;;;-3276.70;79.90;;;-2.38;79.83;96774.81;4988089;28;20967;-70
2021/01/16 03:13:50;;;;;;;29.63;16.17;;;-3276.60;79.90;;;-2.42;79.60;96779.31;4974234;28;20053;-69
2021/01/16 03:16:26;;;;;;;33.45;16.23;;;-3276.50;80.40;;;-2.41;80.40;96775.00;4974994;28;20039;-69
2021/01/16 03:18:51;;;;;;;29.65;14.93;;;-3276.60;80.30;;;-2.42;79.30;96773.34;4990702;28;20043;-69
2021/01/16 03:21:17;;;;;;;32.88;16.20;;;-3276.50;80.50;;;-2.45;79.57;96779.50;4971223;28;20072;-69
2021/01/16 03:23:43;;;;;;;31.35;16.10;;;-3276.40;80.80;;;-2.47;80.04;96779.59;5010122;28;20037;-69
2021/01/16 03:26:09;;;;;;;30.75;16.05;;;-3276.40;81.00;;;-2.49;79.77;96778.88;5007638;28;20053;-69
2021/01/16 03:28:34;;;;;;;31.40;16.02;;;-3276.50;80.80;;;-2.45;79.78;96773.53;5007143;28;20029;-70
2021/01/16 03:31:00;;;;;;;30.27;16.10;;;-3276.50;80.50;;;-2.45;79.67;96779.50;5006244;28;20401;-69
2021/01/16 03:33:26;;;;;;;31.50;15.70;;;-3276.40;80.70;;;-2.45;79.62;96773.53;5005819;28;20049;-69
2021/01/16 03:35:51;;;;;;;30.15;16.92;;;-3276.50;80.50;;;-2.45;79.93;96786.41;4988179;28;20062;-70
2021/01/16 03:38:17;;;;;;;27.85;15.18;;;-3276.40;80.60;;;-2.49;80.05;96776.31;4988575;28;20033;-69
2021/01/16 03:40:47;;;;;;;30.00;16.33;;;-3276.40;80.80;;;-2.50;79.94;96772.03;4989007;28;20121;-70
2021/01/16 03:43:13;;;;;;;30.55;16.17;;;-3276.40;80.70;;;-2.48;79.63;96777.13;4986731;28;20035;-70
2021/01/16 03:45:39;;;;;;;28.25;15.85;;;-3276.50;80.60;;;-2.49;79.68;96773.72;4987508;28;22441;-70
2021/01/16 03:48:06;;;;;;;28.27;15.57;;;-3276.50;80.60;;;-2.49;80.19;96784.03;4986953;28;20038;-69
2021/01/16 03:50:32;;;;;;;28.63;15.55;;;-3276.50;80.20;;;-2.50;80.17;96781.50;4987428;28;20069;-70
2021/01/16 03:52:58;;;;;;;29.13;16.85;;;-3276.50;80.40;;;-2.50;80.12;96773.78;4988651;28;20548;-70
2021/01/16 03:55:24;;;;;;;30.25;15.30;;;-3276.50;80.30;;;-2.50;80.10;96776.38;4980209;28;20039;-69
2021/01/16 03:57:49;;;;;;;27.85;15.00;;;-3276.50;80.20;;;-2.50;79.62;96774.63;4983826;28;20120;-70
2021/01/16 04:00:15;;;;;;;29.05;15.00;;;-3276.50;79.90;;;-2.51;79.77;96770.38;4987844;28;20058;-70
2021/01/16 04:02:41;;;;;;;29.02;16.00;;;-3276.40;80.30;;;-2.50;80.25;96772.03;4986405;28;20073;-70
2021/01/16 04:05:08;;;;;;;31.00;15.60;;;-3276.50;80.20;;;-2.51;80.08;96770.38;4988608;28;20038;-70
2021/01/16 04:07:33;;;;;;;29.20;16.25;;;-3276.50;80.30;;;-2.52;79.76;96773.88;4984694;28;20039;-70
2021/01/16 04:10:00;;;;;;;28.33;15.75;;;-3276.40;80.40;;;-2.53;80.13;96766.25;4989436;28;20113;-69
2021/01/16 04:12:28;;;;;;;27.23;14.70;;;-3276.50;80.40;;;-2.52;79.90;96773.06;4989197;28;20037;-70
2021/01/16 04:14:54;;;;;;;31.27;15.65;;;-3276.40;80.10;;;-2.57;80.42;96770.75;4989113;28;20548;-70
2021/01/16 04:17:20;;;;;;;29.60;15.75;;;-3276.30;80.50;;;-2.60;79.96;96765.78;4986959;28;20038;-70
2021/01/16 04:19:46;;;;;;;27.63;14.75;;;-3276.30;80.70;;;-2.59;80.05;96770.03;4970239;28;20141;-70
2021/01/16 04:22:12;;;;;;;28.27;14.82;;;-3276.40;80.60;;;-2.58;79.98;96778.59;4986783;28;20114;-69
2021/01/16 04:24:37;;;;;;;28.90;15.30;;;-3276.50;80.40;;;-2.57;79.98;96781.06;4987262;28;20039;-69
2021/01/16 04:27:03;;;;;;;28.95;15.32;;;-3276.40;80.20;;;-2.60;80.45;96776.09;4987290;28;20217;-71
2021/01/16 04:29:29;;;;;;;29.55;14.95;;;-3276.30;80.60;;;-2.61;80.35;96779.59;4987719;28;20035;-70
2021/01/16 04:31:55;;;;;;;28.27;15.48;;;-3276.30;80.60;;;-2.60;80.04;96780.44;4987830;28;20117;-69
2021/01/16 04:34:20;;;;;;;30.15;16.10;;;-3276.30;80.60;;;-2.61;80.02;96774.44;4984752;28;20069;-70
2021/01/16 04:36:46;;;;;;;34.88;16.27;;;-3276.30;80.90;;;-2.61;80.46;96779.59;4980862;28;20128;-70
2021/01/16 04:39:12;;;;;;;29.33;15.45;;;-3276.40;80.50;;;-2.62;80.47;96772.78;4986170;28;20117;-69
2021/01/16 04:41:38;;;;;;;29.67;15.85;;;-3276.30;80.80;;;-2.64;80.46;96779.78;4981736;28;20125;-70
2021/01/16 04:44:04;;;;;;;29.67;15.13;;;-3276.30;80.90;;;-2.63;80.02;96773.72;4982159;28;20038;-70
2021/01/16 04:46:30;;;;;;;30.15;16.00;;;-3276.30;80.70;;;-2.64;79.85;96774.63;4986443;28;20549;-69
2021/01/16 04:49:04;;;;;;;32.40;16.95;;;-3276.30;80.60;;;-2.65;81.60;96778.13;4987170;28;20038;-70
2021/01/16 04:51:43;;;;;;;30.65;16.50;;;-3276.30;80.80;;;-2.64;80.85;96784.94;4983056;28;20118;-69
2021/01/16 04:54:17;;;;;;;32.33;16.90;;;-3276.40;80.60;;;-2.63;80.85;96781.44;4987638;28;20050;-67
2021/01/16 04:56:43;;;;;;;30.75;16.30;;;-3276.30;80.50;;;-2.63;79.88;96781.44;4979803;28;20038;-66
2021/01/16 04:59:08;;;;;;;30.63;16.83;;;-3276.40;80.50;;;-2.65;80.44;96778.13;4983400;28;20042;-66
2021/01/16 05:01:34;;;;;;;31.63;17.05;;;-3276.30;80.70;;;-2.65;80.18;96775.56;4985500;28;20054;-65
2021/01/16 05:04:00;;;;;;;31.13;16.38;;;-3276.30;80.70;;;-2.67;80.65;96777.41;4986673;28;20536;-66
2021/01/16 05:06:27;;;;;;;32.03;17.17;;;-3276.30;80.60;;;-2.65;80.62;96777.31;4982630;28;20058;-65
2021/01/16 05:08:55;;;;;;;33.95;17.30;;;-3276.30;80.20;;;-2.67;80.34;96774.81;4984681;28;20457;-68
2021/01/16 05:11:40;;;;;;;29.92;15.88;;;-3276.20;80.60;;;-2.67;81.76;96771.41;4983675;28;20042;-69
2021/01/16 05:14:17;;;;;;;31.27;16.23;;;-3276.30;80.50;;;-2.69;81.60;96783.56;4990639;28;20034;-70
2021/01/16 05:16:55;;;;;;;32.22;16.50;;;-3276.30;80.50;;;-2.69;81.19;96776.66;4988143;28;20058;-68
2021/01/16 05:19:24;;;;;;;28.30;15.70;;;-3276.30;80.20;;;-2.71;80.43;96778.50;4987437;28;20034;-69
2021/01/16 05:21:49;;;;;;;30.35;15.82;;;-3276.20;80.60;;;-2.71;80.17;96775.94;4990961;28;20103;-70
2021/01/16 05:24:16;;;;;;;31.83;16.65;;;-3276.30;80.40;;;-2.70;80.38;96776.75;5008183;28;20057;-69
2021/01/16 05:26:56;;;;;;;33.30;16.60;;;-3276.40;80.20;;;-2.71;81.23;96777.69;4989138;28;20034;-69
2021/01/16 05:29:23;;;;;;;29.75;16.42;;;-3276.20;80.30;;;-2.70;80.27;96779.31;4986109;28;20105;-70
2021/01/16 05:31:53;;;;;;;35.75;16.85;;;-3276.20;80.30;;;-2.71;80.51;96778.50;4988004;28;20108;-69
2021/01/16 05:34:19;;;;;;;34.20;16.70;;;-3276.20;80.10;;;-2.71;80.30;96782.81;4971286;28;20042;-68
2021/01/16 05:36:48;;;;;;;32.63;16.65;;;-3276.30;80.20;;;-2.72;80.73;96784.53;4986531;28;20088;-69
2021/01/16 05:39:14;;;;;;;32.65;16.45;;;-3276.30;79.90;;;-2.71;80.13;96788.81;4987830;28;20037;-71
2021/01/16 05:41:43;;;;;;;28.52;15.73;;;-3276.30;79.60;;;-2.70;80.19;96785.31;4987949;28;20410;-71
2021/01/16 05:44:09;;;;;;;28.10;15.20;;;-3276.30;79.60;;;-2.69;80.28;96783.56;4986788;28;20560;-72
2021/01/16 05:46:35;;;;;;;29.10;15.73;;;-3276.30;79.70;;;-2.70;80.23;96780.16;4986007;28;20046;-71
2021/01/16 05:49:01;;;;;;;32.65;16.40;;;-3276.30;79.60;;;-2.70;79.95;96785.31;4987256;28;20046;-73
2021/01/16 05:51:28;;;;;;;27.73;14.73;;;-3276.30;79.60;;;-2.70;79.72;96782.72;4985997;28;20068;-68
2021/01/16 05:53:54;;;;;;;31.10;16.48;;;-3276.30;79.60;;;-2.71;80.24;96793.94;4969982;28;20092;-64
2021/01/16 05:56:20;;;;;;;30.13;15.73;;;-3276.30;79.50;;;-2.72;79.74;96784.53;4966801;28;20039;-69
2021/01/16 05:58:46;;;;;;;27.20;14.60;;;-3276.20;79.60;;;-2.71;79.96;96783.66;4967390;28;20105;-69
2021/01/16 06:01:23;;;;;;;30.60;16.17;;;-3276.30;79.50;;;-2.71;81.25;96783.66;4951618;28;20046;-69
2021/01/16 06:03:55;;;;;;;31.40;16.60;;;-3276.30;79.40;;;-2.72;80.32;96784.53;4986934;28;20133;-68
2021/01/16 06:06:21;;;;;;;28.80;16.38;;;-3276.30;79.40;;;-2.72;80.16;96781.97;4998744;28;20598;-69
2021/01/16 06:08:51;;;;;;;29.58;15.50;;;-3276.30;79.40;;;-2.75;80.35;96787.31;5006257;28;20072;-69
2021/01/16 06:11:17;;;;;;;31.75;16.58;;;-3276.20;79.50;;;-2.79;80.06;96785.84;5008029;28;20087;-68
2021/01/16 06:13:43;;;;;;;29.42;15.13;;;-3276.10;80.00;;;-2.79;79.65;96784.09;5007072;28;20038;-69
2021/01/16 06:16:20;;;;;;;29.85;14.95;;;-3276.10;79.80;;;-2.78;80.52;96779.75;4990433;28;20180;-69
2021/01/16 06:19:13;;;;;;;29.35;15.65;;;-3276.20;79.40;;;-2.81;81.21;96777.38;5007731;28;20034;-69
2021/01/16 06:21:39;;;;;;;28.85;14.48;;;-3276.10;79.50;;;-2.80;79.62;96784.16;5003601;28;20044;-69
2021/01/16 06:24:05;;;;;;;23.88;13.63;;;-3276.20;79.40;;;-2.86;79.84;96780.22;4974505;28;20441;-70
2021/01/16 06:26:31;;;;;;;28.05;15.20;;;-3276.10;79.10;;;-2.84;79.97;96774.97;4990200;28;20034;-69
2021/01/16 06:29:00;;;;;;;27.90;14.48;;;-3276.30;79.20;;;-2.80;79.80;96779.84;4974349;28;20061;-69
2021/01/16 06:31:28;;;;;;;26.83;14.40;;;-3276.20;78.80;;;-2.76;79.54;96788.22;5007422;28;20077;-68
2021/01/16 06:34:09;;;;;;;31.77;14.85;;;-3276.20;78.50;;;-2.76;80.26;96783.06;5007541;28;20651;-69
2021/01/16 06:36:38;;;;;;;30.65;15.23;;;-3276.20;78.40;;;-2.77;80.27;96782.25;5007122;28;20099;-69
2021/01/16 06:39:08;;;;;;;28.00;14.90;;;-3276.20;78.50;;;-2.77;79.90;96778.84;5006452;28;20041;-72
2021/01/16 06:41:39;;;;;;;28.88;13.68;;;-3276.30;78.40;;;-2.75;79.97;96786.47;5005781;28;20030;-68
2021/01/16 06:44:15;;;;;;;25.27;14.70;;;-3276.20;77.90;;;-2.79;79.23;96785.84;5006330;28;20108;-69
2021/01/16 06:46:48;;;;;;;27.50;13.63;;;-3276.00;77.90;;;-2.79;79.46;96785.84;5007202;28;20663;-72
2021/01/16 06:49:25;;;;;;;26.52;13.77;;;-3276.20;78.00;;;-2.78;79.75;96777.19;5007586;28;20045;-69
2021/01/16 06:51:52;;;;;;;27.00;13.80;;;-3276.20;77.50;;;-2.78;79.03;96780.59;5007215;28;20057;-69
2021/01/16 06:54:25;;;;;;;24.35;12.43;;;-3276.20;77.10;;;-2.79;79.24;96781.50;5007196;28;20114;-69
2021/01/16 06:57:00;;;;;;;23.80;12.07;;;-3276.30;77.00;;;-2.76;78.89;96785.66;5006879;28;20521;-69
2021/01/16 06:59:26;;;;;;;25.63;13.48;;;-3276.30;76.70;;;-2.77;79.21;96776.25;5009128;28;20505;-68
2021/01/16 07:01:52;;;;;;;29.20;14.77;;;-3276.30;76.40;;;-2.79;78.87;96776.34;4993807;28;20057;-69
2021/01/16 07:04:18;;;;;;;29.30;14.38;;;-3276.20;77.00;;;-2.79;78.97;96775.53;4989920;28;20035;-68
2021/01/16 07:06:47;;;;;;;27.25;14.85;;;-3276.20;77.60;;;-2.79;78.99;96778.09;4973754;28;20125;-69
2021/01/16 07:09:20;;;;;;;28.33;14.48;;;-3276.20;77.90;;;-2.80;79.47;96774.69;4992215;28;20034;-64
2021/01/16 07:11:47;;;;;;;29.90;15.80;;;-3276.20;78.20;;;-2.79;79.42;96780.69;5000722;28;20461;-67
2021/01/16 07:14:13;;;;;;;30.05;16.00;;;-3276.20;78.10;;;-2.80;79.19;96787.56;5009101;28;20096;-67
2021/01/16 07:16:43;;;;;;;26.58;14.63;;;-3276.20;78.20;;;-2.82;79.49;96786.00;5008985;28;20061;-67
2021/01/16 07:19:21;;;;;;;29.30;15.60;;;-3276.10;78.70;;;-2.84;80.04;96780.13;5009619;28;20506;-66
2021/01/16 07:21:47;;;;;;;31.67;16.13;;;-3276.10;78.60;;;-2.84;79.53;96793.00;5008969;28;20121;-67
2021/01/16 07:24:12;;;;;;;33.42;16.83;;;-3276.10;79.00;;;-2.84;79.25;96787.84;5006950;28;20049;-66
2021/01/16 07:26:41;;;;;;;30.23;16.92;;;-3276.20;80.10;;;-2.83;79.51;96792.91;5016936;28;20036;-67
2021/01/16 07:29:08;;;;;;;44.55;22.58;;;-3276.10;78.70;;;-2.82;79.70;96797.13;4980298;28;20042;-66
2021/01/16 07:31:38;;;;;;;35.33;18.33;;;-3276.20;79.70;;;-2.84;80.09;96793.81;5008034;28;20060;-67
2021/01/16 07:34:04;;;;;;;38.60;20.10;;;-3276.10;79.20;;;-2.82;79.69;96799.72;5009014;28;20350;-66
2021/01/16 07:36:30;;;;;;;48.63;23.98;;;-3276.10;79.00;;;-2.79;79.37;96796.13;5008277;28;20038;-66
2021/01/16 07:38:56;;;;;;;38.65;19.73;;;-3276.20;79.00;;;-2.76;79.57;96801.09;4997012;28;20470;-67
2021/01/16 07:41:22;;;;;;;40.58;19.73;;;-3276.30;79.30;;;-2.73;79.42;96790.59;4971949;28;20045;-68
2021/01/16 07:44:07;;;;;;;34.28;17.08;;;-3276.30;78.10;;;-2.72;79.85;96797.41;4975842;28;20049;-67
2021/01/16 07:46:34;;;;;;;28.25;16.08;;;-3276.30;77.90;;;-2.70;79.51;96797.34;4999560;28;20119;-65
2021/01/16 07:49:01;;;;;;;32.58;16.73;;;-3276.40;77.90;;;-2.72;79.19;96794.84;5003436;28;20068;-66
2021/01/16 07:51:34;;;;;;;29.73;15.35;;;-3276.30;78.00;;;-2.73;79.62;96806.06;5008801;28;20532;-69
2021/01/16 07:54:04;;;;;;;32.88;16.10;;;-3276.30;78.30;;;-2.72;79.11;96800.00;5008822;28;20041;-66
2021/01/16 07:56:42;;;;;;;31.57;15.87;;;-3276.30;77.80;;;-2.69;79.58;96804.16;5009547;28;20410;-67
2021/01/16 07:59:15;;;;;;;31.10;15.88;;;-3276.40;77.50;;;-2.70;79.73;96803.34;5010007;28;20564;-66
2021/01/16 08:01:40;;;;;;;31.85;16.35;;;-3276.30;77.70;;;-2.69;78.99;96806.72;5005884;28;20136;-65
2021/01/16 08:04:32;;;;;;;35.60;15.88;;;-3276.30;77.60;;;-2.69;80.09;96802.41;4989771;28;20742;-65
2021/01/16 08:07:03;;;;;;;36.00;16.55;;;-3276.30;77.70;;;-2.70;79.29;96803.34;4968989;28;20174;-65
2021/01/16 08:09:53;;;;;;;31.80;15.00;;;-3276.30;78.10;;;-2.68;79.61;96793.75;4972556;28;20034;-67
2021/01/16 08:12:21;;;;;;;27.60;14.45;;;-3276.30;77.70;;;-2.65;78.88;96798.72;4989503;28;20044;-67
2021/01/16 08:14:47;;;;;;;27.58;15.80;;;-3276.40;77.50;;;-2.63;78.66;96794.31;4989779;28;20457;-66
2021/01/16 08:17:18;;;;;;;28.15;15.15;;;-3276.40;77.00;;;-2.62;79.27;96793.41;4989315;28;20113;-66
2021/01/16 08:20:15;;;;;;;26.73;14.98;;;-3276.40;77.10;;;-2.56;79.08;96784.47;4987764;28;20065;-66
2021/01/16 08:22:51;;;;;;;30.15;14.95;;;-3276.60;76.30;;;-2.52;78.86;96779.03;4987780;28;20053;-69
2021/01/16 08:25:21;;;;;;;25.63;14.57;;;-3276.70;76.20;;;-2.48;78.73;96780.53;4987324;28;20034;-64
2021/01/16 08:27:48;;;;;;;25.47;14.17;;;-3276.70;75.40;;;-2.42;78.30;96778.50;4991021;28;20037;-64
2021/01/16 08:30:22;;;;;;;24.02;13.25;;;0.00;75.10;;;-2.37;78.68;96776.47;4992786;28;20814;-65
2021/01/16 08:33:05;;;;;;;23.40;12.32;;;0.00;74.50;;;-2.32;78.03;96784.75;4997387;28;20046;-65
2021/01/16 08:35:48;;;;;;;24.23;12.77;;;0.00;73.70;;;-2.26;77.70;96779.22;4989363;28;20038;-67
2021/01/16 08:38:17;;;;;;;23.10;12.68;;;0.00;73.60;;;-2.22;77.70;96778.13;5006894;28;20084;-65
2021/01/16 08:41:08;;;;;;;25.58;12.45;;;0.10;73.70;;;-2.15;77.09;96781.97;5000541;28;20042;-66
2021/01/16 08:43:44;;;;;;;23.33;12.68;;;0.20;72.90;;;-2.09;77.14;96781.59;4987676;28;20446;-66
2021/01/16 08:46:37;;;;;;;21.33;11.60;;;0.20;71.90;;;-2.03;76.05;96781.22;4989262;28;20057;-66
2021/01/16 08:49:17;;;;;;;22.98;12.60;;;0.40;71.80;;;-1.94;77.07;96785.78;4989517;28;20035;-66
2021/01/16 08:51:44;;;;;;;26.40;12.82;;;0.50;72.10;;;-1.87;77.48;96779.31;4988381;28;20042;-66
2021/01/16 08:54:15;;;;;;;24.92;12.88;;;0.50;71.20;;;-1.78;76.21;96784.84;4989129;28;20026;-67
2021/01/16 08:56:46;;;;;;;25.63;13.90;;;0.70;70.10;;;-1.70;76.29;96782.59;4988156;28;20050;-66
2021/01/16 08:59:33;;;;;;;20.15;10.82;;;0.70;70.00;;;-1.61;75.15;96792.31;4969660;28;20110;-66
2021/01/16 09:02:06;;;;;;;22.98;11.60;;;0.80;69.30;;;-1.54;75.36;96788.44;4983854;28;20408;-66
2021/01/16 09:04:39;;;;;;;20.27;10.88;;;0.90;68.40;;;-1.47;75.26;96794.88;4988344;28;20038;-66
2021/01/16 09:07:24;;;;;;;21.17;10.80;;;1.00;68.30;;;-1.37;74.06;96789.94;4987233;28;20414;-66
2021/01/16 09:09:57;;;;;;;19.70;10.55;;;1.00;68.00;;;-1.31;74.19;96792.97;4986785;28;20046;-66
2021/01/16 09:12:33;;;;;;;19.77;10.88;;;1.10;66.80;;;-1.24;73.81;96791.63;4988383;28;20034;-65
2021/01/16 09:15:39;;;;;;;22.83;12.23;;;1.10;66.50;;;-1.14;72.83;96801.34;4988531;28;20053;-65
2021/01/16 09:18:10;;;;;;;23.48;12.95;;;1.30;66.60;;;-1.07;74.78;96800.03;4946802;28;20031;-65
2021/01/16 09:20:41;;;;;;;19.92;10.98;;;1.30;66.90;;;-1.03;74.06;96798.91;4983394;28;20038;-67
2021/01/16 09:23:18;;;;;;;18.42;10.52;;;1.30;65.90;;;-0.96;73.14;96800.16;4991918;28;20038;-66
2021/01/16 09:25:48;;;;;;;23.25;11.95;;;1.50;65.90;;;-0.92;74.71;96807.59;5006127;28;20150;-67
2021/01/16 09:28:14;;;;;;;18.50;10.40;;;1.50;65.40;;;-0.85;74.41;96807.22;4998496;28;20072;-67
2021/01/16 09:30:40;;;;;;;19.98;11.00;;;1.50;64.50;;;-0.84;74.53;96801.13;4987561;28;20057;-67
2021/01/16 09:33:25;;;;;;;19.05;11.00;;;1.50;64.80;;;-0.76;71.59;96809.16;4987791;28;20073;-66
2021/01/16 09:35:51;;;;;;;20.60;11.82;;;1.70;64.20;;;-0.71;73.98;96810.50;4986889;28;21193;-67
2021/01/16 09:38:21;;;;;;;21.08;11.75;;;1.70;64.30;;;-0.65;73.04;96804.97;4987138;28;20029;-67
2021/01/16 09:40:48;;;;;;;20.85;12.32;;;1.90;64.10;;;-0.57;73.82;96806.19;4986982;28;20034;-67
2021/01/16 09:43:19;;;;;;;21.13;12.27;;;1.90;64.20;;;-0.45;72.49;96802.78;4987529;28;20042;-67
2021/01/16 09:45:55;;;;;;;20.90;11.52;;;2.30;63.30;;;-0.33;71.01;96799.34;4984915;28;20077;-67
2021/01/16 09:48:30;;;;;;;25.20;12.57;;;2.60;61.90;;;-0.19;71.60;96796.66;4986776;28;20081;-67
2021/01/16 09:51:00;;;;;;;21.58;12.75;;;2.70;61.30;;;-0.10;72.17;96796.03;4986812;28;20042;-68
2021/01/16 09:53:26;;;;;;;21.77;12.82;;;2.60;61.40;;;0.02;73.43;96789.19;4969766;28;20134;-67
2021/01/16 09:55:55;;;;;;;18.70;11.25;;;2.70;60.90;;;0.12;73.27;96794.53;4966184;28;20038;-68
2021/01/16 09:58:40;;;;;;;20.33;12.23;;;2.90;60.20;;;0.26;69.78;96786.63;4967783;28;20041;-67
2021/01/16 10:01:19;;;;;;;19.33;11.50;;;3.30;59.30;;;0.36;69.80;96787.63;4979689;28;20041;-67
2021/01/16 10:03:46;;;;;;;21.63;12.73;;;3.20;58.70;;;0.39;72.63;96771.88;4986767;28;20030;-67
2021/01/16 10:06:13;;;;;;;22.88;12.50;;;3.10;58.80;;;0.47;72.25;96774.75;4986970;28;20073;-68